createdAt,value
2022-08-23T00:00:54.022Z,98186.56
2022-08-23T00:02:58.953Z,98191.25
2022-08-23T00:05:08.721Z,98191.50
2022-08-23T00:07:19.498Z,98194.53
2022-08-23T00:09:26.654Z,98191.28
2022-08-23T00:11:34.487Z,98190.59
2022-08-23T00:13:47.951Z,98199.44
2022-08-23T00:15:53.565Z,98189.13
2022-08-23T00:18:00.722Z,98189.97
2022-08-23T00:20:08.081Z,98190.81
2022-08-23T00:22:14.333Z,98187.31
2022-08-23T00:24:24.418Z,98187.47
2022-08-23T00:26:29.901Z,98178.94
2022-08-23T00:28:35.159Z,98185.31
2022-08-23T00:30:40.085Z,98186.47
2022-08-23T00:32:45.573Z,98185.06
2022-08-23T00:34:51.063Z,98184.56
2022-08-23T00:36:56.911Z,98179.66
2022-08-23T00:39:02.300Z,98184.09
2022-08-23T00:41:09.747Z,98179.66
2022-08-23T00:43:29.337Z,98186.03
2022-08-23T00:45:52.330Z,98183.50
2022-08-23T00:47:58.014Z,98183.72
2022-08-23T00:50:23.562Z,98182.78
2022-08-23T00:52:37.561Z,98185.78
2022-08-23T00:54:44.777Z,98183.25
2022-08-23T00:56:53.399Z,98189.47
2022-08-23T00:58:58.299Z,98193.19
2022-08-23T01:01:04.666Z,98193.56
2022-08-23T01:03:12.450Z,98191.88
2022-08-23T01:05:17.636Z,98187.66
2022-08-23T01:07:32.750Z,98194.16
2022-08-23T01:09:40.880Z,98201.53
2022-08-23T01:11:51.794Z,98200.81
2022-08-23T01:14:03.995Z,98204.41
2022-08-23T01:16:13.794Z,98197.78
2022-08-23T01:18:23.959Z,98203.53
2022-08-23T01:20:29.213Z,98200.31
2022-08-23T01:22:36.665Z,98206.03
2022-08-23T01:25:06.378Z,98205.19
2022-08-23T01:27:15.501Z,98203.50
2022-08-23T01:29:20.389Z,98206.13
2022-08-23T01:31:27.439Z,98210.81
2022-08-23T01:33:32.818Z,98215.34
2022-08-23T01:35:41.756Z,98212.72
2022-08-23T01:37:47.886Z,98213.16
2022-08-23T01:39:55.686Z,98215.19
2022-08-23T01:42:00.728Z,98219.25
2022-08-23T01:44:12.999Z,98218.84
2022-08-23T01:46:22.072Z,98216.44
2022-08-23T01:48:27.460Z,98220.97
2022-08-23T01:50:33.033Z,98218.56
2022-08-23T01:52:38.817Z,98222.28
2022-08-23T01:54:55.974Z,98216.91
2022-08-23T01:57:02.028Z,98213.75
2022-08-23T01:59:07.555Z,98214.19
2022-08-23T02:01:19.102Z,98212.41
2022-08-23T02:03:24.062Z,98211.56
2022-08-23T02:05:29.542Z,98215.25
2022-08-23T02:07:35.140Z,98214.56
2022-08-23T02:09:37.470Z,98218.34
2022-08-23T02:11:46.044Z,98220.88
2022-08-23T02:13:51.500Z,98222.78
2022-08-23T02:15:58.511Z,98219.75
2022-08-23T02:18:03.971Z,98221.56
2022-08-23T02:20:10.583Z,98219.97
2022-08-23T02:22:16.496Z,98220.25
2022-08-23T02:24:23.718Z,98222.91
2022-08-23T02:26:31.136Z,98222.16
2022-08-23T02:28:39.179Z,98228.16
2022-08-23T02:30:44.287Z,98226.50
2022-08-23T02:32:51.130Z,98226.50
2022-08-23T02:35:05.300Z,98225.53
2022-08-23T02:37:15.041Z,98227.94
2022-08-23T02:39:20.992Z,98229.44
2022-08-23T02:41:26.730Z,98232.38
2022-08-23T02:43:35.662Z,98233.44
2022-08-23T02:45:46.140Z,98235.44
2022-08-23T02:47:52.543Z,98229.22
2022-08-23T02:50:02.572Z,98223.13
2022-08-23T02:52:09.247Z,98224.41
2022-08-23T02:54:15.255Z,98224.53
2022-08-23T02:56:21.866Z,98218.38
2022-08-23T02:58:29.121Z,98218.84
2022-08-23T03:00:35.356Z,98220.22
2022-08-23T03:02:44.175Z,98214.22
2022-08-23T03:04:49.402Z,98222.94
2022-08-23T03:06:54.407Z,98215.91
2022-08-23T03:09:00.019Z,98215.72
2022-08-23T03:11:09.077Z,98220.56
2022-08-23T03:13:15.047Z,98219.22
2022-08-23T03:15:20.911Z,98217.63
2022-08-23T03:17:26.316Z,98216.91
2022-08-23T03:19:33.924Z,98217.84
2022-08-23T03:21:39.224Z,98221.13
2022-08-23T03:23:44.633Z,98220.72
2022-08-23T03:25:50.235Z,98221.03
2022-08-23T03:28:03.474Z,98233.44
2022-08-23T03:30:11.726Z,98227.03
2022-08-23T03:32:27.379Z,98231.25
2022-08-23T03:34:34.920Z,98225.84
2022-08-23T03:36:40.252Z,98231.94
2022-08-23T03:38:45.414Z,98231.75
2022-08-23T03:40:52.534Z,98232.56
2022-08-23T03:42:57.695Z,98236.91
2022-08-23T03:45:03.989Z,98240.38
2022-08-23T03:47:08.910Z,98240.47
2022-08-23T03:49:14.852Z,98234.50
2022-08-23T03:51:27.380Z,98237.97
2022-08-23T03:53:33.248Z,98229.31
2022-08-23T03:55:42.316Z,98234.50
2022-08-23T03:57:49.955Z,98232.91
2022-08-23T03:59:59.891Z,98234.59
2022-08-23T04:02:07.339Z,98234.59
2022-08-23T04:04:12.423Z,98231.94
2022-08-23T04:06:33.235Z,98231.94
2022-08-23T04:08:38.374Z,98225.97
2022-08-23T04:10:44.107Z,98228.63
2022-08-23T04:12:48.988Z,98229.75
2022-08-23T04:14:56.335Z,98237.75
2022-08-23T04:17:01.683Z,98241.75
2022-08-23T04:19:07.031Z,98236.69
2022-08-23T04:21:19.521Z,98242.38
2022-08-23T04:23:28.062Z,98243.22
2022-08-23T04:25:35.789Z,98242.38
2022-08-23T04:27:42.491Z,98243.13
2022-08-23T04:29:47.609Z,98242.91
2022-08-23T04:31:52.974Z,98249.41
2022-08-23T04:33:58.505Z,98249.31
2022-08-23T04:36:07.753Z,98248.59
2022-08-23T04:38:24.140Z,98248.38
2022-08-23T04:40:46.409Z,98257.94
2022-08-23T04:42:52.979Z,98257.84
2022-08-23T04:44:58.119Z,98262.34
2022-08-23T04:47:02.974Z,98261.59
2022-08-23T04:49:10.300Z,98264.44
2022-08-23T04:51:16.436Z,98274.22
2022-08-23T04:53:22.272Z,98278.19
2022-08-23T04:55:40.324Z,98282.34
2022-08-23T04:57:45.939Z,98284.66
2022-08-23T04:59:55.653Z,98290.75
2022-08-23T05:02:00.561Z,98297.06
2022-08-23T05:04:08.238Z,98300.38
2022-08-23T05:06:16.216Z,98301.63
2022-08-23T05:08:21.375Z,98302.38
2022-08-23T05:10:26.225Z,98309.28
2022-08-23T05:12:34.700Z,98312.13
2022-08-23T05:14:39.595Z,98312.31
2022-08-23T05:16:44.478Z,98314.03
2022-08-23T05:18:50.090Z,98312.03
2022-08-23T05:20:55.889Z,98303.94
2022-08-23T05:23:03.801Z,98315.94
2022-08-23T05:25:12.401Z,98313.22
2022-08-23T05:27:17.490Z,98318.28
2022-08-23T05:29:26.018Z,98323.34
2022-08-23T05:31:32.349Z,98323.97
2022-08-23T05:33:41.191Z,98327.97
2022-08-23T05:35:46.220Z,98325.47
2022-08-23T05:37:51.202Z,98327.78
2022-08-23T05:39:56.279Z,98332.09
2022-08-23T05:42:03.907Z,98329.16
2022-08-23T05:44:08.930Z,98321.00
2022-08-23T05:46:19.967Z,98324.28
2022-08-23T05:48:42.474Z,98335.25
2022-08-23T05:50:48.532Z,98335.59
2022-08-23T05:52:53.708Z,98332.09
2022-08-23T05:54:58.721Z,98343.16
2022-08-23T05:57:21.966Z,98336.31
2022-08-23T05:59:26.841Z,98337.69
2022-08-23T06:01:35.321Z,98334.00
2022-08-23T06:03:47.644Z,98331.66
2022-08-23T06:05:59.256Z,98324.28
2022-08-23T06:08:04.098Z,98334.03
2022-08-23T06:10:15.831Z,98335.91
2022-08-23T06:12:23.246Z,98332.97
2022-08-23T06:14:28.716Z,98340.88
2022-08-23T06:16:38.679Z,98336.03
2022-08-23T06:18:47.846Z,98340.25
2022-08-23T06:21:28.667Z,98344.53
2022-08-23T06:23:33.994Z,98344.88
2022-08-23T06:25:39.923Z,98348.56
2022-08-23T06:27:48.968Z,98346.22
2022-08-23T06:29:54.326Z,98348.66
2022-08-23T06:32:13.812Z,98343.91
2022-08-23T06:34:34.301Z,98353.00
2022-08-23T06:37:00.200Z,98349.44
2022-08-23T06:39:37.514Z,98347.25
2022-08-23T06:42:34.398Z,98350.84
2022-08-23T06:44:39.708Z,98354.41
2022-08-23T06:47:06.975Z,98355.47
2022-08-23T06:49:14.754Z,98355.66
2022-08-23T06:51:26.628Z,98357.66
2022-08-23T06:53:40.556Z,98354.56
2022-08-23T06:56:03.800Z,98358.31
2022-08-23T06:58:18.951Z,98346.56
2022-08-23T07:00:42.391Z,98355.09
2022-08-23T07:02:53.969Z,98350.94
2022-08-23T07:05:27.404Z,98355.88
2022-08-23T07:08:07.595Z,98350.63
2022-08-23T07:10:13.382Z,98353.63
2022-08-23T07:12:19.917Z,98355.69
2022-08-23T07:14:26.189Z,98357.16
2022-08-23T07:16:36.248Z,98357.91
2022-08-23T07:18:41.513Z,98357.91
2022-08-23T07:20:48.959Z,98359.34
2022-08-23T07:22:53.949Z,98359.81
2022-08-23T07:24:58.889Z,98357.28
2022-08-23T07:27:07.159Z,98354.53
2022-08-23T07:29:15.519Z,98356.19
2022-08-23T07:31:22.749Z,98359.19
2022-08-23T07:33:27.626Z,98360.97
2022-08-23T07:35:54.897Z,98366.59
2022-08-23T07:38:00.926Z,98362.03
2022-08-23T07:40:20.318Z,98363.59
2022-08-23T07:42:28.306Z,98355.72
2022-08-23T07:44:35.069Z,98362.91
2022-08-23T07:46:42.613Z,98366.13
2022-08-23T07:48:54.378Z,98370.06
2022-08-23T07:51:12.518Z,98367.16
2022-08-23T07:53:17.513Z,98365.81
2022-08-23T07:55:42.788Z,98368.69
2022-08-23T07:58:10.939Z,98361.19
2022-08-23T08:00:31.890Z,98367.38
2022-08-23T08:02:53.232Z,98366.88
2022-08-23T08:05:06.546Z,98359.72
2022-08-23T08:07:21.757Z,98368.13
2022-08-23T08:09:35.576Z,98369.28
2022-08-23T08:11:40.894Z,98367.75
2022-08-23T08:13:48.639Z,98377.28
2022-08-23T08:15:55.233Z,98376.50
2022-08-23T08:18:05.131Z,98376.81
2022-08-23T08:20:48.930Z,98376.31
2022-08-23T08:23:19.103Z,98376.06
2022-08-23T08:25:47.366Z,98379.41
2022-08-23T08:27:55.671Z,98385.25
2022-08-23T08:30:00.951Z,98383.47
2022-08-23T08:32:09.075Z,98372.88
2022-08-23T08:34:18.969Z,98377.59
2022-08-23T08:36:35.297Z,98381.47
2022-08-23T08:38:47.949Z,98386.78
2022-08-23T08:41:04.014Z,98390.56
2022-08-23T08:43:21.456Z,98385.41
2022-08-23T08:45:29.661Z,98387.63
2022-08-23T08:47:40.914Z,98387.09
2022-08-23T08:49:49.859Z,98380.44
2022-08-23T08:52:01.985Z,98389.84
2022-08-23T08:54:12.840Z,98388.06
2022-08-23T08:56:32.376Z,98380.94
2022-08-23T08:58:56.803Z,98384.03
2022-08-23T09:01:02.314Z,98381.94
2022-08-23T09:03:14.290Z,98381.56
2022-08-23T09:05:21.708Z,98382.09
2022-08-23T09:07:33.416Z,98377.50
2022-08-23T09:10:08.042Z,98382.53
2022-08-23T09:12:29.251Z,98375.56
2022-08-23T09:14:54.898Z,98375.84
2022-08-23T09:17:06.167Z,98382.25
2022-08-23T09:19:11.268Z,98376.16
2022-08-23T09:21:17.867Z,98378.25
2022-08-23T09:23:26.270Z,98379.53
2022-08-23T09:25:37.175Z,98378.00
2022-08-23T09:27:49.121Z,98382.75
2022-08-23T09:29:57.915Z,98380.34
2022-08-23T09:32:06.204Z,98380.75
2022-08-23T09:34:19.184Z,98373.47
2022-08-23T09:36:40.503Z,98368.16
2022-08-23T09:38:54.963Z,98366.41
2022-08-23T09:41:03.984Z,98364.88
2022-08-23T09:43:15.829Z,98370.19
2022-08-23T09:45:35.418Z,98368.72
2022-08-23T09:47:44.688Z,98366.69
2022-08-23T09:49:52.548Z,98361.03
2022-08-23T09:52:01.988Z,98357.00
2022-08-23T09:54:11.473Z,98361.50
2022-08-23T09:56:26.323Z,98360.28
2022-08-23T09:58:38.809Z,98360.78
2022-08-23T10:00:44.247Z,98361.19
2022-08-23T10:02:49.297Z,98353.28
2022-08-23T10:05:03.067Z,98356.88
2022-08-23T10:07:29.864Z,98354.00
2022-08-23T10:09:36.562Z,98354.22
2022-08-23T10:11:49.186Z,98352.34
2022-08-23T10:13:57.593Z,98349.16
2022-08-23T10:16:15.280Z,98354.16
2022-08-23T10:18:43.794Z,98363.94
2022-08-23T10:20:58.966Z,98360.06
2022-08-23T10:23:18.277Z,98354.81
2022-08-23T10:25:36.040Z,98358.47
2022-08-23T10:28:03.448Z,98356.88
2022-08-23T10:30:14.053Z,98346.53
2022-08-23T10:32:29.735Z,98347.16
2022-08-23T10:34:50.827Z,98342.66
2022-08-23T10:37:12.544Z,98339.44
2022-08-23T10:39:25.735Z,98342.66
2022-08-23T10:41:44.364Z,98335.41
2022-08-23T10:44:03.591Z,98333.50
2022-08-23T10:46:10.770Z,98333.28
2022-08-23T10:48:28.766Z,98325.69
2022-08-23T10:50:45.357Z,98323.13
2022-08-23T10:53:08.162Z,98325.72
2022-08-23T10:55:35.272Z,98324.16
2022-08-23T10:57:44.355Z,98321.78
2022-08-23T10:59:56.076Z,98319.28
2022-08-23T11:02:08.033Z,98320.84
2022-08-23T11:04:24.789Z,98313.44
2022-08-23T11:06:50.281Z,98308.53
2022-08-23T11:09:03.320Z,98308.03
2022-08-23T11:11:43.269Z,98310.44
2022-08-23T11:13:55.997Z,98307.31
2022-08-23T11:16:10.676Z,98314.88
2022-08-23T11:18:41.118Z,98311.31
2022-08-23T11:21:07.717Z,98307.00
2022-08-23T11:23:19.112Z,98309.59
2022-08-23T11:25:43.174Z,98298.03
2022-08-23T11:27:48.387Z,98310.88
2022-08-23T11:29:55.604Z,98294.25
2022-08-23T11:32:33.506Z,98299.13
2022-08-23T11:34:51.321Z,98289.25
2022-08-23T11:37:10.736Z,98299.44
2022-08-23T11:39:21.634Z,98301.47
2022-08-23T11:41:32.664Z,98296.09
2022-08-23T11:43:42.035Z,98294.16
2022-08-23T11:45:50.241Z,98293.84
2022-08-23T11:48:15.864Z,98292.25
2022-08-23T11:50:31.987Z,98295.41
2022-08-23T11:53:10.766Z,98292.78
2022-08-23T11:55:33.022Z,98292.19
2022-08-23T11:57:57.037Z,98292.69
2022-08-23T12:00:10.986Z,98288.72
2022-08-23T12:02:47.537Z,98287.03
2022-08-23T12:04:55.918Z,98290.38
2022-08-23T12:07:03.320Z,98296.06
2022-08-23T12:09:13.394Z,98288.41
2022-08-23T12:11:20.287Z,98287.53
2022-08-23T12:13:48.594Z,98288.00
2022-08-23T12:16:16.196Z,98286.97
2022-08-23T12:18:24.437Z,98285.25
2022-08-23T12:20:34.312Z,98282.28
2022-08-23T12:23:00.354Z,98285.34
2022-08-23T12:25:08.160Z,98292.22
2022-08-23T12:27:29.387Z,98290.56
2022-08-23T12:29:42.350Z,98284.25
2022-08-23T12:31:58.801Z,98289.41
2022-08-23T12:34:14.355Z,98287.06
2022-08-23T12:36:28.004Z,98279.25
2022-08-23T12:38:41.346Z,98283.41
2022-08-23T12:40:51.606Z,98285.25
2022-08-23T12:43:08.746Z,98280.28
2022-08-23T12:45:18.419Z,98277.28
2022-08-23T12:47:26.514Z,98278.28
2022-08-23T12:49:34.921Z,98277.94
2022-08-23T12:51:55.653Z,98276.13
2022-08-23T12:54:15.432Z,98272.94
2022-08-23T12:56:31.996Z,98261.75
2022-08-23T12:58:42.752Z,98272.59
2022-08-23T13:00:56.709Z,98274.75
2022-08-23T13:03:07.291Z,98265.03
2022-08-23T13:05:16.679Z,98264.38
2022-08-23T13:07:26.952Z,98266.56
2022-08-23T13:09:34.911Z,98263.41
2022-08-23T13:11:41.099Z,98266.22
2022-08-23T13:13:47.021Z,98258.72
2022-08-23T13:15:59.885Z,98258.75
2022-08-23T13:18:04.871Z,98250.94
2022-08-23T13:20:21.883Z,98249.28
2022-08-23T13:22:31.211Z,98235.59
2022-08-23T13:24:39.240Z,98252.31
2022-08-23T13:26:48.308Z,98250.63
2022-08-23T13:29:04.228Z,98248.69
2022-08-23T13:31:10.779Z,98250.34
2022-08-23T13:33:24.714Z,98253.66
2022-08-23T13:35:36.201Z,98251.53
2022-08-23T13:37:49.427Z,98248.81
2022-08-23T13:39:57.133Z,98243.00
2022-08-23T13:42:03.661Z,98242.50
2022-08-23T13:44:11.459Z,98237.09
2022-08-23T13:46:22.752Z,98236.63
2022-08-23T13:48:30.225Z,98231.75
2022-08-23T13:50:37.366Z,98229.19
2022-08-23T13:53:11.479Z,98222.81
2022-08-23T13:55:10.535Z,98230.44
2022-08-23T13:57:18.427Z,98227.94
2022-08-23T13:59:31.403Z,98225.25
2022-08-23T14:01:37.745Z,98219.44
2022-08-23T14:03:42.670Z,98223.59
2022-08-23T14:05:49.607Z,98217.09
2022-08-23T14:07:57.091Z,98221.56
2022-08-23T14:10:02.679Z,98214.00
2022-08-23T14:12:10.228Z,98212.69
2022-08-23T14:14:18.316Z,98211.03
2022-08-23T14:16:34.375Z,98208.16
2022-08-23T14:19:16.219Z,98217.38
2022-08-23T14:21:04.378Z,98212.84
2022-08-23T14:23:12.383Z,98202.38
2022-08-23T14:25:18.039Z,98209.16
2022-08-23T14:27:22.844Z,98206.53
2022-08-23T14:29:28.932Z,98212.72
2022-08-23T14:31:33.492Z,98211.03
2022-08-23T14:33:38.560Z,98207.78
2022-08-23T14:35:44.095Z,98205.91
2022-08-23T14:38:05.430Z,98205.78
2022-08-23T14:40:14.265Z,98209.16
2022-08-23T14:42:24.398Z,98206.66
2022-08-23T14:44:35.704Z,98197.91
2022-08-23T14:46:41.312Z,98204.13
2022-08-23T14:48:45.875Z,98201.16
2022-08-23T14:50:50.689Z,98201.81
2022-08-23T14:52:55.683Z,98206.31
2022-08-23T14:55:00.581Z,98206.44
2022-08-23T14:57:08.560Z,98203.81
2022-08-23T14:59:13.625Z,98197.25
2022-08-23T15:01:19.016Z,98201.34
2022-08-23T15:03:29.650Z,98201.78
2022-08-23T15:05:34.505Z,98203.16
2022-08-23T15:07:39.146Z,98201.03
2022-08-23T15:09:44.215Z,98205.84
2022-08-23T15:14:17.161Z,98210.19
2022-08-23T15:16:25.052Z,98194.88
2022-08-23T15:18:30.541Z,98202.47
2022-08-23T15:20:37.691Z,98203.31
2022-08-23T15:22:45.029Z,98197.41
2022-08-23T15:24:50.022Z,98198.38
2022-08-23T15:26:59.682Z,98194.66
2022-08-23T15:29:05.012Z,98193.31
2022-08-23T15:31:13.265Z,98196.69
2022-08-23T15:33:21.327Z,98190.03
2022-08-23T15:35:31.956Z,98185.31
2022-08-23T15:37:37.172Z,98184.25
2022-08-23T15:39:42.247Z,98187.84
2022-08-23T15:41:49.604Z,98191.88
2022-08-23T15:43:54.445Z,98190.91
2022-08-23T15:45:59.637Z,98192.41
2022-08-23T15:48:15.308Z,98192.47
2022-08-23T15:50:21.821Z,98187.25
2022-08-23T15:52:27.074Z,98193.81
2022-08-23T15:54:32.063Z,98189.38
2022-08-23T15:56:39.762Z,98178.28
2022-08-23T15:58:45.264Z,98189.03
2022-08-23T16:00:51.104Z,98181.53
2022-08-23T16:03:18.727Z,98189.13
2022-08-23T16:05:25.057Z,98190.47
2022-08-23T16:07:30.016Z,98193.47
2022-08-23T16:09:36.629Z,98185.13
2022-08-23T16:11:41.512Z,98189.91
2022-08-23T16:13:51.567Z,98193.31
2022-08-23T16:16:00.513Z,98185.59
2022-08-23T16:18:05.413Z,98191.13
2022-08-23T16:20:12.970Z,98185.44
2022-08-23T16:22:20.366Z,98190.13
2022-08-23T16:24:27.821Z,98194.59
2022-08-23T16:26:37.052Z,98197.00
2022-08-23T16:28:41.940Z,98197.25
2022-08-23T16:30:47.009Z,98197.41
2022-08-23T16:32:52.216Z,98193.97
2022-08-23T16:34:57.310Z,98198.47
2022-08-23T16:37:04.368Z,98201.22
2022-08-23T16:39:13.074Z,98204.63
2022-08-23T16:41:17.995Z,98201.66
2022-08-23T16:43:22.578Z,98203.34
2022-08-23T16:45:27.459Z,98202.91
2022-08-23T16:47:32.675Z,98197.97
2022-08-23T16:49:37.711Z,98194.25
2022-08-23T16:51:42.399Z,98200.44
2022-08-23T16:54:00.601Z,98198.44
2022-08-23T16:56:11.476Z,98200.91
2022-08-23T16:58:16.466Z,98203.13
2022-08-23T17:00:21.074Z,98205.84
2022-08-23T17:02:30.492Z,98204.34
2022-08-23T17:04:35.659Z,98207.53
2022-08-23T17:06:40.504Z,98209.06
2022-08-23T17:08:45.563Z,98202.41
2022-08-23T17:10:50.653Z,98207.44
2022-08-23T17:12:59.776Z,98209.97
2022-08-23T17:15:04.684Z,98207.69
2022-08-23T17:17:09.615Z,98205.50
2022-08-23T17:19:14.752Z,98213.38
2022-08-23T17:21:19.841Z,98212.03
2022-08-23T17:23:24.762Z,98213.41
2022-08-23T17:25:30.627Z,98222.59
2022-08-23T17:27:35.807Z,98216.75
2022-08-23T17:29:43.782Z,98219.56
2022-08-23T17:31:51.053Z,98229.09
2022-08-23T17:33:56.812Z,98237.63
2022-08-23T17:36:05.109Z,98225.59
2022-08-23T17:38:10.499Z,98235.31
2022-08-23T17:40:21.413Z,98238.31
2022-08-23T17:42:26.387Z,98239.50
2022-08-23T17:44:31.240Z,98234.34
2022-08-23T17:46:41.700Z,98239.19
2022-08-23T17:48:46.613Z,98244.50
2022-08-23T17:50:51.927Z,98243.16
2022-08-23T17:53:00.617Z,98249.13
2022-08-23T17:55:10.920Z,98243.47
2022-08-23T17:57:15.826Z,98246.47
2022-08-23T17:59:20.871Z,98254.47
2022-08-23T18:01:26.637Z,98252.28
2022-08-23T18:03:34.130Z,98258.63
2022-08-23T18:05:43.023Z,98260.13
2022-08-23T18:07:48.145Z,98267.44
2022-08-23T18:09:54.185Z,98267.09
2022-08-23T18:11:59.383Z,98268.75
2022-08-23T18:14:04.225Z,98271.75
2022-08-23T18:16:09.653Z,98268.56
2022-08-23T18:18:14.975Z,98277.22
2022-08-23T18:20:23.127Z,98280.03
2022-08-23T18:22:28.173Z,98287.69
2022-08-23T18:24:32.715Z,98288.28
2022-08-23T18:26:51.122Z,98289.94
2022-08-23T18:28:55.892Z,98294.59
2022-08-23T18:31:03.721Z,98300.94
2022-08-23T18:33:12.644Z,98296.88
2022-08-23T18:35:17.779Z,98304.38
2022-08-23T18:37:25.246Z,98297.53
2022-08-23T18:39:32.194Z,98303.34
2022-08-23T18:41:38.389Z,98313.16
2022-08-23T18:43:45.003Z,98317.16
2022-08-23T18:45:52.067Z,98320.13
2022-08-23T18:47:56.973Z,98313.59
2022-08-23T18:50:02.129Z,98317.88
2022-08-23T18:52:08.160Z,98317.22
2022-08-23T18:54:15.958Z,98323.69
2022-08-23T18:56:20.880Z,98324.00
2022-08-23T18:58:26.135Z,98327.13
2022-08-23T19:00:33.495Z,98330.09
2022-08-23T19:02:38.584Z,98329.56
2022-08-23T19:04:43.452Z,98331.00
2022-08-23T19:06:49.641Z,98337.63
2022-08-23T19:09:01.147Z,98344.09
2022-08-23T19:11:08.994Z,98348.91
2022-08-23T19:13:15.399Z,98352.72
2022-08-23T19:15:20.828Z,98355.13
2022-08-23T19:17:26.665Z,98350.28
2022-08-23T19:19:31.483Z,98356.88
2022-08-23T19:21:36.605Z,98355.81
2022-08-23T19:23:41.210Z,98354.06
2022-08-23T19:25:46.969Z,98359.69
2022-08-23T19:27:55.084Z,98369.97
2022-08-23T19:30:00.030Z,98362.56
2022-08-23T19:32:05.477Z,98375.75
2022-08-23T19:34:10.383Z,98373.69
2022-08-23T19:36:29.603Z,98384.63
2022-08-23T19:38:40.310Z,98377.25
2022-08-23T19:40:46.079Z,98379.22
2022-08-23T19:42:52.294Z,98386.50
2022-08-23T19:44:59.816Z,98379.50
2022-08-23T19:47:05.067Z,98391.97
2022-08-23T19:49:11.094Z,98393.25
2022-08-23T19:51:17.368Z,98393.25
2022-08-23T19:53:22.393Z,98393.41
2022-08-23T19:55:27.523Z,98395.66
2022-08-23T19:57:32.914Z,98399.91
2022-08-23T19:59:41.271Z,98404.81
2022-08-23T20:01:49.819Z,98409.03
2022-08-23T20:03:55.170Z,98406.28
2022-08-23T20:06:00.577Z,98401.53
2022-08-23T20:08:06.156Z,98413.31
2022-08-23T20:10:12.972Z,98411.03
2022-08-23T20:12:19.370Z,98413.13
2022-08-23T20:14:26.088Z,98413.56
2022-08-23T20:16:32.829Z,98420.16
2022-08-23T20:18:40.432Z,98421.16
2022-08-23T20:20:46.288Z,98420.03
2022-08-23T20:23:03.992Z,98425.75
2022-08-23T20:25:10.450Z,98421.88
2022-08-23T20:27:24.204Z,98425.66
2022-08-23T20:29:35.625Z,98430.66
2022-08-23T20:31:41.637Z,98434.88
2022-08-23T20:33:49.291Z,98429.13
2022-08-23T20:35:54.496Z,98425.63
2022-08-23T20:37:59.917Z,98425.91
2022-08-23T20:40:05.477Z,98432.22
2022-08-23T20:42:10.596Z,98427.31
2022-08-23T20:44:15.519Z,98426.59
2022-08-23T20:46:20.476Z,98430.09
2022-08-23T20:48:25.451Z,98432.91
2022-08-23T20:50:32.972Z,98433.03
2022-08-23T20:52:37.805Z,98441.28
2022-08-23T20:54:42.775Z,98435.28
2022-08-23T20:56:47.713Z,98438.06
2022-08-23T20:58:52.676Z,98433.84
2022-08-23T21:00:57.818Z,98440.41
2022-08-23T21:03:02.941Z,98445.84
2022-08-23T21:05:08.964Z,98448.50
2022-08-23T21:07:17.721Z,98440.81
2022-08-23T21:09:29.404Z,98441.25
2022-08-23T21:11:34.653Z,98446.25
2022-08-23T21:13:42.372Z,98446.50
2022-08-23T21:15:48.985Z,98442.47
2022-08-23T21:17:53.844Z,98449.03
2022-08-23T21:19:59.002Z,98449.88
2022-08-23T21:22:03.612Z,98453.19
2022-08-23T21:24:12.548Z,98454.19
2022-08-23T21:26:17.627Z,98454.44
2022-08-23T21:28:22.543Z,98447.44
2022-08-23T21:30:27.409Z,98450.25
2022-08-23T21:32:32.292Z,98449.25
2022-08-23T21:34:37.453Z,98449.09
2022-08-23T21:36:42.084Z,98448.69
2022-08-23T21:38:50.329Z,98461.34
2022-08-23T21:41:02.096Z,98450.31
2022-08-23T21:43:07.062Z,98461.19
2022-08-23T21:45:12.608Z,98454.72
2022-08-23T21:47:19.717Z,98458.59
2022-08-23T21:49:24.630Z,98463.56
2022-08-23T21:51:29.789Z,98464.09
2022-08-23T21:53:34.513Z,98463.53
2022-08-23T21:55:39.425Z,98462.56
2022-08-23T21:57:47.866Z,98463.25
2022-08-23T21:59:53.271Z,98462.28
2022-08-23T22:02:00.286Z,98458.94
2022-08-23T22:04:06.135Z,98458.34
2022-08-23T22:06:17.071Z,98467.16
2022-08-23T22:08:21.974Z,98464.19
2022-08-23T22:10:27.660Z,98465.69
2022-08-23T22:12:33.618Z,98469.31
2022-08-23T22:14:41.081Z,98469.44
2022-08-23T22:16:46.337Z,98473.19
2022-08-23T22:18:50.980Z,98476.09
2022-08-23T22:20:56.104Z,98474.53
2022-08-23T22:23:01.635Z,98473.97
2022-08-23T22:25:07.524Z,98475.88
2022-08-23T22:27:13.241Z,98477.44
2022-08-23T22:29:18.398Z,98470.00
2022-08-23T22:31:25.717Z,98475.38
2022-08-23T22:33:30.994Z,98475.78
2022-08-23T22:35:36.374Z,98478.41
2022-08-23T22:37:58.221Z,98475.16
2022-08-23T22:40:10.450Z,98470.97
2022-08-23T22:42:16.460Z,98471.81
2022-08-23T22:44:21.427Z,98481.44
2022-08-23T22:46:30.191Z,98478.91
2022-08-23T22:48:37.195Z,98480.72
2022-08-23T22:50:42.042Z,98480.13
2022-08-23T22:52:46.951Z,98474.84
2022-08-23T22:54:52.625Z,98473.13
2022-08-23T22:56:57.958Z,98471.00
2022-08-23T22:59:03.177Z,98472.19
2022-08-23T23:01:12.955Z,98473.44
2022-08-23T23:05:27.290Z,98470.22
2022-08-23T23:07:44.497Z,98470.91
2022-08-23T23:09:49.383Z,98469.22
2022-08-23T23:11:54.472Z,98467.81
2022-08-23T23:14:00.184Z,98470.00
2022-08-23T23:16:07.180Z,98470.94
2022-08-23T23:18:12.085Z,98468.28
2022-08-23T23:20:31.992Z,98463.25
2022-08-23T23:22:36.945Z,98471.69
2022-08-23T23:24:42.794Z,98461.34
2022-08-23T23:26:48.406Z,98459.94
2022-08-23T23:28:53.239Z,98467.16
2022-08-23T23:30:59.444Z,98467.41
2022-08-23T23:33:04.513Z,98466.09
2022-08-23T23:35:10.198Z,98458.75
2022-08-23T23:37:17.662Z,98458.31
2022-08-23T23:39:22.563Z,98453.28
2022-08-23T23:41:27.684Z,98454.09
2022-08-23T23:43:32.298Z,98457.94
2022-08-23T23:45:37.194Z,98448.22
2022-08-23T23:47:42.488Z,98453.38
2022-08-23T23:49:51.593Z,98447.25
2022-08-23T23:51:56.563Z,98446.41
2022-08-23T23:54:04.458Z,98443.88
2022-08-23T23:56:15.336Z,98440.41
2022-08-23T23:58:20.333Z,98445.09
